Webcam Flughafen St.Gallen-Altenrhein

Live-Bilder und Zeitraffer LSZR / ACH.

 

Live aus Altenrhein
LIVE
LSZR 120620Z AUTO 08003KT 9999 NCD 15/13 Q1025
Zeitraffer heute
2020-07-12 00:14:42
LSZR 112150Z AUTO 21003KT CAVOK 13/13 Q1024